createdAt,value
2023-02-05T00:00:08.986Z,102194.50
2023-02-05T00:05:11.219Z,102196.59
2023-02-05T00:10:12.860Z,102191.50
2023-02-05T00:15:14.542Z,102194.41
2023-02-05T00:20:16.504Z,102192.25
2023-02-05T00:25:18.238Z,102189.97
2023-02-05T00:30:20.050Z,102185.53
2023-02-05T00:35:21.873Z,102184.50
2023-02-05T00:40:23.571Z,102178.59
2023-02-05T00:45:25.256Z,102182.41
2023-02-05T00:50:26.911Z,102188.88
2023-02-05T00:55:28.612Z,102190.13
2023-02-05T01:00:30.552Z,102199.38
2023-02-05T01:05:34.524Z,102189.97
2023-02-05T01:10:37.250Z,102194.25
2023-02-05T01:15:39.526Z,102195.91
2023-02-05T01:20:42.968Z,102206.19
2023-02-05T01:25:44.840Z,102200.16
2023-02-05T01:30:50.806Z,102196.88
2023-02-05T01:35:52.632Z,102183.94
2023-02-05T01:40:54.344Z,102181.28
2023-02-05T01:46:08.274Z,102177.53
2023-02-05T01:51:12.970Z,102161.41
2023-02-05T01:56:24.867Z,102161.22
2023-02-05T02:01:28.022Z,102146.78
2023-02-05T02:06:29.839Z,102141.81
2023-02-05T02:11:35.538Z,102136.41
2023-02-05T02:16:39.529Z,102122.56
2023-02-05T02:21:53.218Z,102114.03
2023-02-05T02:27:32.522Z,102104.22
2023-02-05T02:32:34.120Z,102105.09
2023-02-05T02:38:01.683Z,102098.81
2023-02-05T02:43:26.689Z,102089.75
2023-02-05T02:48:30.939Z,102079.91
2023-02-05T02:53:41.698Z,102080.19
2023-02-05T02:58:48.704Z,102063.53
2023-02-05T03:04:02.880Z,102056.16
2023-02-05T03:09:12.081Z,102061.22
2023-02-05T03:14:13.913Z,102055.09
2023-02-05T03:19:15.799Z,102060.16
2023-02-05T03:24:19.526Z,102053.75
2023-02-05T03:29:29.714Z,102046.69
2023-02-05T03:34:45.912Z,102054.59
2023-02-05T03:40:06.576Z,102054.53
2023-02-05T03:45:11.355Z,102048.38
2023-02-05T03:50:27.919Z,102055.97
2023-02-05T03:55:39.060Z,102072.69
2023-02-05T04:00:42.097Z,102079.09
2023-02-05T04:05:45.422Z,102060.28
2023-02-05T04:10:47.565Z,102058.59
2023-02-05T04:15:50.590Z,102061.25
2023-02-05T04:20:52.949Z,102058.78
2023-02-05T04:25:58.865Z,102053.53
2023-02-05T04:31:09.553Z,102063.84
2023-02-05T04:36:14.302Z,102073.06
2023-02-05T04:41:16.396Z,102064.16
2023-02-05T04:46:18.203Z,102067.25
2023-02-05T04:51:19.920Z,102069.31
2023-02-05T04:56:21.812Z,102074.25
2023-02-05T05:01:24.201Z,102081.06
2023-02-05T05:06:25.920Z,102083.31
2023-02-05T05:11:27.677Z,102081.25
2023-02-05T05:16:29.397Z,102085.97
2023-02-05T05:21:31.185Z,102078.56
2023-02-05T05:26:33.545Z,102097.63
2023-02-05T05:31:35.226Z,102104.72
2023-02-05T05:36:36.975Z,102110.56
2023-02-05T05:41:57.396Z,102098.78
2023-02-05T05:46:59.131Z,102103.50
2023-02-05T05:52:00.959Z,102091.97
2023-02-05T05:57:02.796Z,102094.38
2023-02-05T06:02:05.295Z,102085.28
2023-02-05T06:07:07.026Z,102093.44
2023-02-05T06:12:10.701Z,102092.56
2023-02-05T06:17:13.298Z,102092.94
2023-02-05T06:22:15.049Z,102098.41
2023-02-05T06:27:16.760Z,102101.94
2023-02-05T06:32:18.398Z,102103.47
2023-02-05T06:37:20.165Z,102113.06
2023-02-05T06:42:22.032Z,102120.81
2023-02-05T06:47:23.714Z,102125.38
2023-02-05T06:52:25.370Z,102122.44
2023-02-05T06:57:27.040Z,102105.09
2023-02-05T07:02:28.777Z,102108.94
2023-02-05T07:07:30.469Z,102097.38
2023-02-05T07:12:32.294Z,102099.59
2023-02-05T07:17:34.023Z,102098.53
2023-02-05T07:22:35.796Z,102109.97
2023-02-05T07:27:37.501Z,102105.94
2023-02-05T07:32:39.166Z,102108.09
2023-02-05T07:37:40.924Z,102109.44
2023-02-05T07:42:42.625Z,102111.81
2023-02-05T07:47:44.350Z,102112.44
2023-02-05T07:52:46.143Z,102106.75
2023-02-05T07:57:47.814Z,102112.03
2023-02-05T08:02:49.487Z,102113.09
2023-02-05T08:07:51.144Z,102122.34
2023-02-05T08:12:52.967Z,102109.72
2023-02-05T08:17:54.633Z,102100.66
2023-02-05T08:22:56.346Z,102084.78
2023-02-05T08:27:58.090Z,102079.34
2023-02-05T08:32:59.802Z,102070.13
2023-02-05T08:38:01.447Z,102060.41
2023-02-05T08:43:03.529Z,102062.34
2023-02-05T08:48:05.232Z,102053.56
2023-02-05T08:53:07.161Z,102036.06
2023-02-05T08:58:08.940Z,102036.41
2023-02-05T09:03:10.757Z,102037.22
2023-02-05T09:08:12.753Z,102032.06
2023-02-05T09:13:14.435Z,102035.13
2023-02-05T09:18:16.322Z,102025.53
2023-02-05T09:23:19.134Z,102027.50
2023-02-05T09:28:20.931Z,102020.72
2023-02-05T09:33:22.676Z,102021.59
2023-02-05T09:38:24.520Z,102022.22
2023-02-05T09:43:51.063Z,102018.50
2023-02-05T09:49:12.866Z,102005.38
2023-02-05T09:54:36.707Z,102021.34
2023-02-05T09:59:44.229Z,102012.50
2023-02-05T10:04:45.904Z,102016.41
2023-02-05T10:10:16.162Z,101997.34
2023-02-05T10:15:47.548Z,101994.03
2023-02-05T10:21:11.969Z,101997.66
2023-02-05T10:26:15.581Z,101994.03
2023-02-05T10:31:37.176Z,101978.53
2023-02-05T10:36:38.951Z,101982.84
2023-02-05T10:41:48.012Z,101979.28
2023-02-05T10:46:55.352Z,101972.91
2023-02-05T10:51:56.971Z,101978.22
2023-02-05T10:56:59.257Z,101963.91
2023-02-05T11:02:08.086Z,101959.00
2023-02-05T11:07:20.775Z,101953.88
2023-02-05T11:12:32.612Z,101938.19
2023-02-05T11:17:38.109Z,101942.41
2023-02-05T11:22:40.429Z,101944.00
2023-02-05T11:27:58.602Z,101934.78
2023-02-05T11:33:18.237Z,101937.25
2023-02-05T11:38:32.119Z,101933.09
2023-02-05T11:43:37.339Z,101927.19
2023-02-05T11:48:44.941Z,101920.91
2023-02-05T11:53:57.642Z,101919.56
2023-02-05T11:59:05.184Z,101910.25
2023-02-05T12:04:06.798Z,101897.22
2023-02-05T12:09:28.988Z,101910.19
2023-02-05T12:15:08.883Z,101904.69
2023-02-05T12:20:33.189Z,101895.09
2023-02-05T12:25:53.794Z,101898.91
2023-02-05T12:31:20.037Z,101896.66
2023-02-05T12:36:38.026Z,101896.66
2023-02-05T12:42:16.145Z,101899.13
2023-02-05T12:47:31.653Z,101891.47
2023-02-05T12:52:56.371Z,101898.22
2023-02-05T12:58:02.550Z,101885.94
2023-02-05T13:03:44.140Z,101875.75
2023-02-05T13:08:53.559Z,101874.88
2023-02-05T13:14:09.066Z,101868.09
2023-02-05T13:19:30.071Z,101871.13
2023-02-05T13:25:14.039Z,101864.31
2023-02-05T13:30:31.820Z,101861.53
2023-02-05T13:35:41.653Z,101865.72
2023-02-05T13:41:17.061Z,101864.75
2023-02-05T13:46:44.331Z,101872.69
2023-02-05T13:52:10.586Z,101873.66
2023-02-05T13:57:47.408Z,101896.03
2023-02-05T14:02:54.132Z,101896.97
2023-02-05T14:08:01.941Z,101890.47
2023-02-05T14:13:13.627Z,101901.50
2023-02-05T14:18:40.305Z,101895.63
2023-02-05T14:23:48.329Z,101886.22
2023-02-05T14:28:51.440Z,101876.69
2023-02-05T14:33:53.338Z,101873.34
2023-02-05T14:39:03.885Z,101868.78
2023-02-05T14:44:25.802Z,101884.78
2023-02-05T14:49:39.135Z,101888.38
2023-02-05T14:54:52.597Z,101893.09
2023-02-05T14:59:59.851Z,101908.59
2023-02-05T15:05:04.127Z,101913.06
2023-02-05T15:10:13.542Z,101912.72
2023-02-05T15:15:33.221Z,101899.84
2023-02-05T15:20:40.284Z,101919.34
2023-02-05T15:25:47.361Z,101909.19
2023-02-05T15:31:18.950Z,101916.94
2023-02-05T15:36:30.125Z,101918.16
2023-02-05T15:41:36.051Z,101892.75
2023-02-05T15:46:37.816Z,101902.59
2023-02-05T15:51:39.991Z,101897.00
2023-02-05T15:56:42.522Z,101908.56
2023-02-05T16:01:52.524Z,101907.81
2023-02-05T16:06:54.667Z,101900.03
2023-02-05T16:11:57.142Z,101903.41
2023-02-05T16:17:07.793Z,101917.53
2023-02-05T16:22:18.578Z,101921.59
2023-02-05T16:27:45.267Z,101929.16
2023-02-05T16:32:48.560Z,101938.31
2023-02-05T16:37:51.508Z,101964.72
2023-02-05T16:42:54.248Z,101964.50
2023-02-05T16:48:25.455Z,101980.22
2023-02-05T16:53:29.950Z,101982.34
2023-02-05T16:58:45.445Z,101995.25
2023-02-05T17:03:50.076Z,101990.38
2023-02-05T17:08:55.339Z,101991.69
2023-02-05T17:14:25.014Z,101991.69
2023-02-05T17:19:32.486Z,101992.72
2023-02-05T17:24:34.216Z,101998.41
2023-02-05T17:29:35.884Z,102010.16
2023-02-05T17:34:37.580Z,102015.25
2023-02-05T17:39:39.696Z,102006.47
2023-02-05T17:44:41.418Z,102005.91
2023-02-05T17:49:43.259Z,102000.38
2023-02-05T17:54:47.985Z,101999.75
2023-02-05T17:59:50.207Z,101988.53
2023-02-05T18:04:52.562Z,101997.81
2023-02-05T18:09:54.257Z,101993.13
2023-02-05T18:14:56.138Z,102012.44
2023-02-05T18:19:57.819Z,102021.28
2023-02-05T18:24:59.579Z,102024.59
2023-02-05T18:30:03.041Z,102014.78
2023-02-05T18:35:05.153Z,102014.53
2023-02-05T18:40:07.324Z,102010.47
2023-02-05T18:45:09.560Z,102019.69
2023-02-05T18:50:11.614Z,102016.59
2023-02-05T18:55:13.515Z,102012.09
2023-02-05T19:00:15.464Z,102028.09
2023-02-05T19:05:17.314Z,102044.44
2023-02-05T19:10:19.112Z,102044.03
2023-02-05T19:15:20.857Z,102036.56
2023-02-05T19:20:23.243Z,102039.56
2023-02-05T19:25:25.033Z,102057.81
2023-02-05T19:30:26.797Z,102064.75
2023-02-05T19:35:28.538Z,102059.94
2023-02-05T19:40:30.414Z,102063.94
2023-02-05T19:45:37.407Z,102060.13
2023-02-05T19:50:40.578Z,102068.84
2023-02-05T19:55:42.202Z,102071.72
2023-02-05T20:00:44.030Z,102084.09
2023-02-05T20:05:49.562Z,102068.16
2023-02-05T20:10:58.800Z,102072.38
2023-02-05T20:16:05.891Z,102079.47
2023-02-05T20:21:10.507Z,102068.13
2023-02-05T20:26:14.345Z,102061.03
2023-02-05T20:31:34.311Z,102079.22
2023-02-05T20:36:36.892Z,102074.19
2023-02-05T20:41:38.748Z,102078.66
2023-02-05T20:46:40.653Z,102077.06
2023-02-05T20:51:43.633Z,102053.75
2023-02-05T20:56:45.471Z,102058.19
2023-02-05T21:01:47.229Z,102058.66
2023-02-05T21:06:48.922Z,102066.75
2023-02-05T21:11:55.158Z,102071.22
2023-02-05T21:16:57.288Z,102091.19
2023-02-05T21:21:59.259Z,102097.78
2023-02-05T21:27:01.237Z,102103.53
2023-02-05T21:32:03.396Z,102114.16
2023-02-05T21:37:05.091Z,102126.44
2023-02-05T21:42:06.783Z,102146.44
2023-02-05T21:47:08.730Z,102153.72
2023-02-05T21:52:10.465Z,102153.31
2023-02-05T21:57:12.351Z,102172.41
2023-02-05T22:02:14.316Z,102161.13
2023-02-05T22:07:16.045Z,102162.41
2023-02-05T22:12:17.994Z,102165.78
2023-02-05T22:17:20.783Z,102174.88
2023-02-05T22:22:24.212Z,102189.88
2023-02-05T22:27:36.613Z,102196.78
2023-02-05T22:32:38.323Z,102193.13
2023-02-05T22:37:40.054Z,102206.47
2023-02-05T22:42:41.733Z,102192.66
2023-02-05T22:47:43.419Z,102189.59
2023-02-05T22:52:45.095Z,102178.16
2023-02-05T22:57:46.841Z,102186.22
2023-02-05T23:02:49.281Z,102187.31
2023-02-05T23:07:52.288Z,102199.03
2023-02-05T23:12:54.021Z,102198.94
2023-02-05T23:17:55.982Z,102189.84
2023-02-05T23:22:57.740Z,102201.28
2023-02-05T23:27:59.435Z,102211.53
2023-02-05T23:33:01.234Z,102208.06
2023-02-05T23:38:02.965Z,102187.09
2023-02-05T23:43:04.586Z,102184.00
2023-02-05T23:48:06.285Z,102179.91
2023-02-05T23:53:07.968Z,102169.56
2023-02-05T23:58:11.102Z,102170.47
